Maysville, North Carolina
Current Conditions -  °F | °C
As of 6:54 AM on Sunday 25 Jan 2015 (Local Time) from KEWN Reporting Station
Clear Clear  
Wind Chill: 37°   Ceiling: Unl
Heat Index: 37°   Visibility: 10mi
Dew Point: 29°   Wind: 0mph
Humidity: 73%   Direction: NA
Pressure: 29.93"   Gusts: NA
Location:  34.9°N, 77.23°W
Report Text: KEWN 251154Z 00000KT 10SM CLR 03/M02 A2993 RMK AO2 SLP136 70029 T00281017 10050 20017 51020
Loading
Personal Weather Stations






























Interactive Weather Map New forecast layout! Learn more

10-Day Weather Forecast

Advertisements
Track Severe Weather on mobile